Language: 


Des rapports , des résumés tant et plus, au choix de chacun....


Données statistiques de la station
Quotidien Rapport Février 18, 2017 Unités:  Anglais    Métrique   les deux
« Précédent Jour
Suivant Jour »
Quotidien Hebdomadaire Mensuel Annuel Actuel
  Haut: Bas: Moyen:
Température: 54.7 °F 32 °F 42.6 °F
Pt de rosée: 51.8 °F 34 °F 40.8 °F
Humidité: 98 % 0 % 93 %
Vitesse du vent: 8.9 mph 0 mph 2.7 mph
Rafales: 13.6 mph - -
Vent:- - SSW
Pression: 30.3 in 0 in -
Précipitation: 0 in    
Historical Graphs
 
 
Données statistiques pour Février 18, 2017
Heure Température Point de rosée Pression Vent Vitesse du vent Refales Humidité Pluie (taux horaire)
00:04 42.8 °F 42.1 °F 30.3 in Calm     97 % 0 in
00:09 42.6 °F 41.7 °F 30.3 in Calm     97 % 0 in
00:14 42.4 °F 41.5 °F 30.3 in Calm     97 % 0 in
00:19 42.6 °F 41.7 °F 30.3 in WSW 1.6 mph 1.6 mph 97 % 0 in
00:24 42.4 °F 41.9 °F 30.3 in Calm   1.6 mph 98 % 0 in
00:29 42.3 °F 41.7 °F 30.3 in Calm   1.3 mph 98 % 0 in
00:34 42.3 °F 41.7 °F 30.3 in WSW 1.6 mph 2 mph 98 % 0 in
00:39 42.1 °F 41.5 °F 30.3 in West 2 mph 3.1 mph 98 % 0 in
00:44 42.3 °F 41.7 °F 30.3 in West 2.7 mph 3.1 mph 98 % 0 in
00:49 42.4 °F 41.9 °F 30.3 in West 2.9 mph 3.6 mph 98 % 0 in
00:54 42.6 °F 42.1 °F 30.3 in West 2.5 mph 3.6 mph 98 % 0 in
00:59 42.4 °F 41.9 °F 30.3 in West 1.3 mph 3.6 mph 98 % 0 in
01:04 42.3 °F 41.7 °F 30.3 in West 3.4 mph 4 mph 98 % 0 in
01:09 42.3 °F 41.7 °F 30.3 in West 2.5 mph 4.3 mph 98 % 0 in
01:15 42.1 °F 41.5 °F 30.3 in West 3.8 mph 4.3 mph 98 % 0 in
01:20 41.9 °F 41.4 °F 30.3 in NNW 4 mph 4.3 mph 98 % 0 in
01:25 41.7 °F 40.8 °F 30.3 in West 3.6 mph 4.3 mph 97 % 0 in
01:30 41.7 °F 41.2 °F 30.3 in West 1.6 mph 3.6 mph 98 % 0 in
01:35 41.4 °F 40.6 °F 30.3 in West 0.9 mph 3.6 mph 97 % 0 in
01:40 40.8 °F 39.9 °F 30.3 in West 2.9 mph 3.6 mph 97 % 0 in
01:45 40.6 °F 39.9 °F 30.3 in West 4.3 mph 6.5 mph 97 % 0 in
01:50 40.5 °F 39.7 °F 30.3 in WSW 3.6 mph 6.5 mph 97 % 0 in
01:55 40.3 °F 39.7 °F 30.3 in West 2.9 mph 5.6 mph 98 % 0 in
02:00 40.3 °F 39.7 °F 30.3 in West 3.4 mph 4.3 mph 98 % 0 in
02:05 40.1 °F 39.6 °F 30.3 in West 1.6 mph 4.2 mph 98 % 0 in
02:10 39.9 °F 39.4 °F 30.3 in West 2.2 mph 3.4 mph 98 % 0 in
02:15 39.7 °F 39.2 °F 30.3 in West 0.9 mph 3.1 mph 98 % 0 in
02:20 39.7 °F 39.2 °F 30.3 in Calm   3.1 mph 98 % 0 in
02:25 39.6 °F 39 °F 30.3 in Calm   1.6 mph 98 % 0 in
02:30 39.2 °F 38.7 °F 30.3 in Calm   1.6 mph 98 % 0 in
02:35 39 °F 38.5 °F 30.3 in Calm     98 % 0 in
02:40 39 °F 38.5 °F 30.3 in NE 3.6 mph 3.6 mph 98 % 0 in
02:45 38.8 °F 38.5 °F 30.3 in ENE 2 mph 3.6 mph 98 % 0 in
02:50 38.7 °F 38.1 °F 30.3 in NE 2.5 mph 3.4 mph 98 % 0 in
02:55 38.5 °F 37.9 °F 30.3 in ENE 0.9 mph 3.1 mph 98 % 0 in
03:00 38.5 °F 37.8 °F 30.3 in ENE 1.6 mph 2.5 mph 98 % 0 in
03:06 32 °F 37.8 °F 0 in Calm   2.5 mph 0 % 0 in
03:11 38.1 °F 37.8 °F 30.3 in Calm   1.6 mph 98 % 0 in
03:16 37.9 °F 37.6 °F 30.3 in Calm     98 % 0 in
03:21 37.8 °F 37.2 °F 30.3 in Calm     98 % 0 in
03:26 37.6 °F 37 °F 30.3 in West 0.9 mph 5.4 mph 98 % 0 in
03:31 37.2 °F 36.9 °F 30.3 in WSW 2.7 mph 5.4 mph 98 % 0 in
03:36 37.2 °F 36.9 °F 30.3 in West 2.5 mph 4.7 mph 98 % 0 in
03:41 37 °F 36.7 °F 30.3 in West 2.7 mph 3.4 mph 98 % 0 in
03:46 37 °F 36.7 °F 30.3 in NW 1.3 mph 3.6 mph 98 % 0 in
03:51 36.9 °F 36.3 °F 30.3 in West 3.1 mph 3.8 mph 98 % 0 in
03:56 36.9 °F 36.3 °F 30.3 in WNW 3.4 mph 4.3 mph 98 % 0 in
04:01 36.9 °F 36.3 °F 30.3 in WSW 3.4 mph 4.7 mph 98 % 0 in
04:06 36.9 °F 36.3 °F 30.3 in West 4.3 mph 5.6 mph 98 % 0 in
04:11 36.9 °F 36.3 °F 30.3 in West 4 mph 5.6 mph 98 % 0 in
04:16 36.9 °F 36.3 °F 30.3 in West 2.9 mph 4.9 mph 98 % 0 in
04:21 36.9 °F 36.3 °F 30.3 in West 2.2 mph 4 mph 98 % 0 in
04:26 36.9 °F 36.3 °F 30.3 in West 2.2 mph 3.8 mph 98 % 0 in
04:31 37 °F 36.7 °F 30.3 in West 1.3 mph 2.9 mph 98 % 0 in
04:37 37.2 °F 36.9 °F 30.3 in Calm   2 mph 98 % 0 in
04:42 37.2 °F 36.9 °F 30.3 in Calm     98 % 0 in
04:47 37.2 °F 36.9 °F 30.3 in Calm     98 % 0 in
04:52 37.2 °F 36.9 °F 30.3 in Calm     98 % 0 in
04:57 37.6 °F 37 °F 30.3 in Calm   2.5 mph 98 % 0 in
05:02 37.6 °F 37 °F 30.3 in Calm   2.5 mph 98 % 0 in
05:07 37.8 °F 37.2 °F 30.3 in West 3.1 mph 3.1 mph 98 % 0 in
05:12 37.8 °F 37.2 °F 30.3 in Calm   3.1 mph 98 % 0 in
05:17 37.9 °F 37.6 °F 30.3 in Calm   3.1 mph 98 % 0 in
05:22 37.9 °F 37.6 °F 30.3 in Calm   0.9 mph 98 % 0 in
05:27 38.1 °F 37.8 °F 30.3 in Calm     98 % 0 in
05:32 38.1 °F 37.8 °F 30.3 in Calm     98 % 0 in
05:37 38.1 °F 37.8 °F 30.3 in Calm   1.6 mph 98 % 0 in
05:42 38.5 °F 37.8 °F 30.3 in East 1.3 mph 1.6 mph 98 % 0 in
05:47 38.5 °F 37.8 °F 30.3 in Calm   1.3 mph 98 % 0 in
05:52 38.5 °F 37.8 °F 30.3 in Calm   1.3 mph 98 % 0 in
05:57 38.1 °F 37.8 °F 30.3 in Calm     98 % 0 in
06:02 37.9 °F 37.6 °F 30.3 in Calm     98 % 0 in
06:07 37.6 °F 37 °F 30.3 in East 2 mph 2 mph 98 % 0 in
06:12 37.6 °F 37 °F 30.3 in Calm   2 mph 98 % 0 in
06:17 37.2 °F 36.9 °F 30.3 in Calm   1.6 mph 98 % 0 in
06:22 37.2 °F 36.9 °F 30.3 in Calm     98 % 0 in
06:27 37 °F 36.7 °F 30.3 in Calm     98 % 0 in
06:32 36.9 °F 36.3 °F 30.3 in Calm   0.9 mph 98 % 0 in
06:37 36.7 °F 36.1 °F 30.3 in West 4.3 mph 4.3 mph 98 % 0 in
06:42 36.1 °F 35.8 °F 30.3 in Calm   4.3 mph 98 % 0 in
06:47 36.1 °F 35.8 °F 30.3 in Calm   3.4 mph 98 % 0 in
06:52 36.1 °F 35.4 °F 30.3 in West 1.3 mph 2 mph 98 % 0 in
06:57 36.1 °F 35.4 °F 30.3 in Calm   2.5 mph 98 % 0 in
07:02 36.1 °F 35.4 °F 30.3 in West 2.7 mph 3.8 mph 98 % 0 in
07:07 35.8 °F 35.2 °F 30.3 in West 3.4 mph 4.7 mph 98 % 0 in
07:12 35.4 °F 35.1 °F 30.3 in West 5.4 mph 5.8 mph 98 % 0 in
07:17 35.2 °F 34.7 °F 30.3 in West 4 mph 6 mph 98 % 0 in
07:22 34.9 °F 34.3 °F 30.3 in West 3.6 mph 6 mph 98 % 0 in
07:27 34.5 °F 34.2 °F 30.3 in West 3.6 mph 4.9 mph 98 % 0 in
07:33 34.5 °F 34 °F 30.3 in West 3.8 mph 4.3 mph 98 % 0 in
07:37 34.5 °F 34 °F 30.3 in West 3.6 mph 4.3 mph 98 % 0 in
07:43 34.5 °F 34 °F 30.3 in West 2 mph 4.3 mph 98 % 0 in
07:48 34.5 °F 34 °F 30.3 in West 3.4 mph 3.6 mph 98 % 0 in
07:53 34.5 °F 34 °F 30.3 in Calm   4.3 mph 98 % 0 in
07:58 34.5 °F 34 °F 30.3 in Calm   4.3 mph 98 % 0 in
08:03 34.5 °F 34 °F 30.3 in West 1.1 mph 2.5 mph 98 % 0 in
08:08 34.5 °F 34 °F 30.3 in Calm   2.7 mph 98 % 0 in
08:13 34.5 °F 34.2 °F 30.3 in Calm   2.7 mph 98 % 0 in
08:18 34.5 °F 34.2 °F 30.3 in Calm     98 % 0 in
08:23 34.5 °F 34.2 °F 30.3 in Calm   1.6 mph 98 % 0 in
08:28 34.9 °F 34.3 °F 30.3 in West 1.6 mph 2.5 mph 98 % 0 in
08:33 34.9 °F 34.3 °F 30.3 in West 1.6 mph 2.7 mph 98 % 0 in
08:38 34.9 °F 34.3 °F 30.3 in Calm   2.7 mph 98 % 0 in
08:43 35.1 °F 34.5 °F 30.3 in Calm     98 % 0 in
08:48 35.1 °F 34.5 °F 30.3 in Calm     98 % 0 in
08:53 35.2 °F 34.7 °F 30.3 in Calm     98 % 0 in
08:58 35.4 °F 34.9 °F 30.3 in Calm     98 % 0 in
09:03 35.4 °F 35.1 °F 30.3 in Calm     98 % 0 in
09:08 35.8 °F 35.2 °F 30.3 in East 0.9 mph 0.9 mph 98 % 0 in
09:13 35.8 °F 35.2 °F 30.3 in Calm   0.9 mph 98 % 0 in
09:18 36.1 °F 35.4 °F 30.3 in Calm   1.6 mph 98 % 0 in
09:23 36.1 °F 35.8 °F 30.3 in Calm   2.2 mph 98 % 0 in
09:28 36.7 °F 36.1 °F 30.3 in Calm   2.2 mph 98 % 0 in
09:33 36.9 °F 36.3 °F 30.3 in Calm   2 mph 98 % 0 in
09:38 37 °F 36.7 °F 30.3 in Calm     98 % 0 in
09:43 37.6 °F 37 °F 30.3 in Calm     98 % 0 in
09:48 37.6 °F 37 °F 30.3 in Calm   1.1 mph 98 % 0 in
09:53 37.9 °F 37.6 °F 30.3 in Calm   1.3 mph 98 % 0 in
09:58 38.1 °F 37.8 °F 30.3 in Calm   1.3 mph 98 % 0 in
10:03 38.5 °F 37.8 °F 30.3 in Calm     98 % 0 in
10:08 38.7 °F 38.1 °F 30.3 in Calm     98 % 0 in
10:13 38.8 °F 38.5 °F 30.3 in Calm     98 % 0 in
10:18 39 °F 38.5 °F 30.3 in Calm     98 % 0 in
10:23 39.2 °F 38.7 °F 30.3 in Calm     98 % 0 in
10:28 39.4 °F 38.8 °F 30.3 in Calm     98 % 0 in
10:33 39.7 °F 39.2 °F 30.3 in Calm     98 % 0 in
10:38 40.1 °F 39.6 °F 30.3 in Calm     98 % 0 in
10:43 40.3 °F 39.7 °F 30.3 in Calm     98 % 0 in
10:48 40.6 °F 40.1 °F 30.3 in Calm   2.2 mph 98 % 0 in
10:53 41 °F 40.5 °F 30.3 in Calm   2.2 mph 98 % 0 in
10:58 41.4 °F 40.8 °F 30.3 in Calm   1.6 mph 98 % 0 in
11:03 41.9 °F 41.4 °F 30.3 in SE 3.1 mph 3.6 mph 98 % 0 in
11:08 42.1 °F 41.5 °F 30.3 in SSE 3.1 mph 3.6 mph 98 % 0 in
11:13 42.3 °F 41.7 °F 30.3 in Calm   3.1 mph 98 % 0 in
11:18 42.6 °F 42.1 °F 30.3 in SSE 1.1 mph 2.5 mph 98 % 0 in
11:23 42.8 °F 42.3 °F 30.3 in South 0.9 mph 3.1 mph 98 % 0 in
11:28 43.2 °F 42.6 °F 30.3 in Calm   4 mph 98 % 0 in
11:33 43.5 °F 43 °F 30.3 in South 2 mph 4.3 mph 98 % 0 in
11:38 43.5 °F 43 °F 30.3 in SSW 2.7 mph 4.3 mph 98 % 0 in
11:43 44.1 °F 43.5 °F 30.3 in Calm   3.6 mph 98 % 0 in
11:48 44.2 °F 43.9 °F 30.3 in Calm   2.9 mph 98 % 0 in
11:53 44.8 °F 44.2 °F 30.3 in SSW 1.6 mph 3.8 mph 98 % 0 in
11:58 45.1 °F 44.4 °F 30.3 in WSW 3.8 mph 4.3 mph 98 % 0 in
12:03 45.1 °F 44.4 °F 30.3 in SW 3.4 mph 4.9 mph 98 % 0 in
12:08 45.3 °F 45 °F 30.3 in South 4.3 mph 4.9 mph 98 % 0 in
12:13 45.7 °F 45.1 °F 30.3 in SSW 3.1 mph 4.7 mph 98 % 0 in
12:18 45.9 °F 45.3 °F 30.3 in SSW 2.9 mph 5.6 mph 98 % 0 in
12:23 46 °F 45.7 °F 30.3 in South 3.6 mph 5.6 mph 98 % 0 in
12:29 46.6 °F 45.9 °F 30.3 in WSW 4 mph 4.7 mph 98 % 0 in
12:34 46.6 °F 46 °F 30.3 in South 3.4 mph 4.7 mph 98 % 0 in
12:39 46.9 °F 46.6 °F 30.3 in SSW 5.4 mph 5.6 mph 98 % 0 in
12:44 47.7 °F 47.1 °F 30.3 in SSW 3.8 mph 5.8 mph 98 % 0 in
12:49 47.3 °F 46.8 °F 30.3 in SSW 3.6 mph 5.8 mph 98 % 0 in
12:54 48.6 °F 48 °F 30.3 in SW 4.7 mph 5.6 mph 98 % 0 in
12:59 48.2 °F 47.7 °F 30.3 in Calm   5.6 mph 98 % 0 in
13:04 48.9 °F 48 °F 30.3 in SSW 3.1 mph 5.4 mph 97 % 0 in
13:09 49.8 °F 48.9 °F 30.3 in SSE 3.1 mph 5.4 mph 97 % 0 in
13:14 49.8 °F 48.9 °F 30.3 in Calm   5.4 mph 97 % 0 in
13:19 50.5 °F 49.5 °F 30.3 in SSW 3.8 mph 4.5 mph 96 % 0 in
13:24 50.9 °F 49.8 °F 30.3 in Calm   4.9 mph 96 % 0 in
13:29 51.6 °F 50.2 °F 30.3 in SSW 3.4 mph 4.9 mph 95 % 0 in
13:34 52 °F 50.5 °F 30.3 in Calm   4.9 mph 95 % 0 in
13:39 52 °F 50.5 °F 30.3 in Calm   6 mph 95 % 0 in
13:44 52.3 °F 50.5 °F 30.3 in SW 4 mph 6.3 mph 94 % 0 in
13:49 52.9 °F 51.1 °F 30.3 in SE 2.7 mph 6.3 mph 94 % 0 in
13:54 53.2 °F 51.6 °F 30.3 in South 6 mph 7.6 mph 94 % 0 in
13:59 53.4 °F 51.8 °F 30.3 in SSE 6.5 mph 7.8 mph 94 % 0 in
14:04 53.8 °F 51.6 °F 30.3 in SSW 5.4 mph 8.7 mph 93 % 0 in
14:09 53.4 °F 51.3 °F 30.3 in South 6 mph 10.1 mph 92 % 0 in
14:14 53.8 °F 51.1 °F 30.3 in SSE 8.7 mph 10.1 mph 91 % 0 in
14:19 53.8 °F 50.5 °F 30.3 in South 5.8 mph 9.2 mph 89 % 0 in
14:24 54 °F 50.2 °F 30.2 in SSE 7.4 mph 10.7 mph 87 % 0 in
14:29 54 °F 49.8 °F 30.2 in South 5.6 mph 10.7 mph 86 % 0 in
14:34 54 °F 49.6 °F 30.2 in SSE 8.5 mph 10.3 mph 85 % 0 in
14:39 54 °F 49.3 °F 30.2 in South 4.5 mph 10.3 mph 84 % 0 in
14:44 54 °F 48.7 °F 30.2 in South 7.2 mph 13.6 mph 82 % 0 in
14:49 54 °F 48.7 °F 30.2 in South 6 mph 13.6 mph 82 % 0 in
14:59 54.1 °F 47.8 °F 30.3 in SW 5.6 mph 9.4 mph 79 % 0 in
15:04 54.3 °F 47.7 °F 30.3 in SSW 5.6 mph 8.1 mph 78 % 0 in
15:09 54.7 °F 47.8 °F 30.3 in SSW 3.8 mph 10.7 mph 78 % 0 in
15:14 54.3 °F 47.7 °F 30.3 in South 5.8 mph 10.7 mph 78 % 0 in
15:19 54 °F 46.9 °F 30.3 in South 5.8 mph 9.6 mph 77 % 0 in
15:24 53.8 °F 46.2 °F 30.3 in South 5.8 mph 9.8 mph 76 % 0 in
15:29 53.8 °F 46.2 °F 30.3 in SSW 8.5 mph 9.8 mph 76 % 0 in
15:34 54 °F 46.6 °F 30.3 in SSE 5.8 mph 10.7 mph 76 % 0 in
15:39 54 °F 46.8 °F 30.3 in South 8.9 mph 10.7 mph 76 % 0 in
15:44 54 °F 46 °F 30.3 in SSE 5.4 mph 10.5 mph 75 % 0 in
15:49 54 °F 46.6 °F 30.3 in SSW 5.8 mph 10.5 mph 76 % 0 in
15:54 53.8 °F 46 °F 30.3 in SSE 5.6 mph 8.5 mph 75 % 0 in
15:59 54 °F 46 °F 30.3 in SSE 4.3 mph 9.6 mph 75 % 0 in
16:04 54 °F 46 °F 30.3 in South 6 mph 9.6 mph 75 % 0 in
16:10 53.8 °F 46 °F 30.3 in SSE 4.3 mph 10.5 mph 75 % 0 in
16:15 53.4 °F 45.3 °F 30.3 in South 7.6 mph 10.5 mph 74 % 0 in
16:20 53.2 °F 45.1 °F 30.3 in South 4.9 mph 8.7 mph 74 % 0 in
16:25 53.1 °F 45 °F 30.3 in South 5.4 mph 10.5 mph 74 % 0 in
16:30 52.9 °F 45.1 °F 30.3 in SSE 6 mph 10.5 mph 75 % 0 in
16:35 52.9 °F 45.1 °F 30.3 in SSW 3.1 mph 7.8 mph 75 % 0 in
16:40 52.9 °F 45.1 °F 30.2 in South 3.6 mph 7.6 mph 75 % 0 in
16:45 52.5 °F 44.8 °F 30.2 in South 3.4 mph 7.6 mph 75 % 0 in
16:50 52.3 °F 44.6 °F 30.2 in SSE 4.7 mph 7.4 mph 75 % 0 in
16:55 52 °F 44.2 °F 30.2 in SSE 3.6 mph 7.8 mph 75 % 0 in
17:00 51.8 °F 44.1 °F 30.2 in SSE 4.9 mph 7.8 mph 75 % 0 in
17:05 51.6 °F 43.9 °F 30.2 in South 4.9 mph 8.5 mph 75 % 0 in
17:10 51.4 °F 43.7 °F 30.2 in SSE 4.9 mph 8.5 mph 75 % 0 in
17:15 51.3 °F 43.9 °F 30.2 in South 4.3 mph 7.6 mph 76 % 0 in
17:20 51.3 °F 44.2 °F 30.2 in SSE 3.1 mph 6.5 mph 77 % 0 in
17:25 50.9 °F 43.9 °F 30.2 in South 2.9 mph 5.6 mph 77 % 0 in
17:30 50.7 °F 43.7 °F 30.2 in SSW 5.6 mph 6.5 mph 77 % 0 in
17:35 50.5 °F 43.9 °F 30.2 in South 2.9 mph 6.5 mph 78 % 0 in
17:45 49.6 °F 43.2 °F 30.2 in South 2.7 mph 8.9 mph 78 % 0 in
17:50 49.1 °F 43 °F 30.2 in SSE 4.5 mph 6 mph 79 % 0 in
17:55 48.6 °F 42.4 °F 30.3 in South 3.1 mph 7.8 mph 79 % 0 in
17:56 48.6 °F 42.4 °F 30.3 in South 3.4 mph 7.8 mph 79 % 0 in
17:57 48.4 °F 42.4 °F 30.3 in SSE 2.7 mph 7.8 mph 80 % 0 in
17:58 48.4 °F 42.4 °F 30.3 in SSW 4 mph 7.8 mph 80 % 0 in
18:03 48 °F 42.4 °F 30.3 in South 3.4 mph 6.3 mph 81 % 0 in
18:08 47.5 °F 42.3 °F 30.2 in South 5.4 mph 6.5 mph 82 % 0 in
18:13 46.9 °F 41.7 °F 30.2 in South 3.1 mph 6.5 mph 82 % 0 in
18:18 46.8 °F 41.9 °F 30.2 in SSE 3.1 mph 5.6 mph 83 % 0 in
18:23 46.2 °F 41.4 °F 30.3 in Calm   6.3 mph 83 % 0 in
18:28 45.9 °F 41.4 °F 30.3 in SSE 4.3 mph 6.3 mph 84 % 0 in
18:33 45.7 °F 41.4 °F 30.3 in SSW 3.4 mph 6.3 mph 85 % 0 in
18:38 45.3 °F 41.5 °F 30.3 in SSE 3.8 mph 6.3 mph 86 % 0 in
18:43 45.1 °F 41.2 °F 30.3 in South 3.8 mph 5.8 mph 86 % 0 in
18:48 45 °F 40.8 °F 30.3 in South 4.9 mph 5.8 mph 86 % 0 in
18:53 44.8 °F 41.2 °F 30.3 in South 5.4 mph 6.5 mph 87 % 0 in
18:58 44.4 °F 41.2 °F 30.3 in South 3.6 mph 6.5 mph 88 % 0 in
19:03 44.2 °F 41 °F 30.3 in South 3.4 mph 6.3 mph 88 % 0 in
19:08 44.2 °F 41.2 °F 30.3 in South 6.3 mph 6.5 mph 89 % 0 in
19:13 44.1 °F 41.4 °F 30.3 in SSW 5.8 mph 7.6 mph 90 % 0 in
19:18 44.1 °F 41.5 °F 30.3 in SSW 5.6 mph 7.6 mph 91 % 0 in
19:23 43.9 °F 41.4 °F 30.3 in SSW 3.8 mph 6.3 mph 91 % 0 in
19:28 43.5 °F 41.2 °F 30.3 in SSW 3.4 mph 5.8 mph 91 % 0 in
19:33 43.5 °F 41.4 °F 30.3 in South 2.5 mph 5.8 mph 92 % 0 in
19:38 43.3 °F 41.2 °F 30.3 in SSW 3.4 mph 5.6 mph 92 % 0 in
19:43 43.3 °F 41.4 °F 30.3 in SSE 4 mph 5.8 mph 93 % 0 in
19:48 43 °F 41.2 °F 30.3 in SSW 3.6 mph 5.8 mph 93 % 0 in
19:53 42.8 °F 40.8 °F 30.3 in SSW 4.9 mph 6.3 mph 93 % 0 in
19:58 42.6 °F 40.6 °F 30.3 in South 3.8 mph 6.3 mph 93 % 0 in
20:03 42.4 °F 40.8 °F 30.3 in SSW 2.5 mph 5.8 mph 94 % 0 in
20:08 42.3 °F 40.6 °F 30.3 in SSW 2.5 mph 5.4 mph 94 % 0 in
20:13 42.1 °F 40.5 °F 30.3 in Calm   4.7 mph 94 % 0 in
20:18 41.7 °F 40.1 °F 30.3 in South 2.7 mph 4.3 mph 94 % 0 in
20:23 41.5 °F 39.9 °F 30.3 in Calm   4.3 mph 94 % 0 in
20:28 41.4 °F 39.7 °F 30.3 in Calm   3.1 mph 94 % 0 in
20:33 41 °F 39.4 °F 30.3 in SW 2.5 mph 3.6 mph 94 % 0 in
20:34 41 °F 39.4 °F 30.3 in SSW 2 mph 3.6 mph 94 % 0 in
20:39 40.8 °F 39.6 °F 30.3 in Calm   4 mph 95 % 0 in
20:44 40.8 °F 39.6 °F 30.3 in South 2.9 mph 4.3 mph 95 % 0 in
20:45 40.8 °F 39.6 °F 30.3 in South 2.9 mph 4.3 mph 95 % 0 in
20:50 41 °F 39.7 °F 30.3 in SSW 2.9 mph 4.3 mph 95 % 0 in
20:55 41.2 °F 40.1 °F 30.3 in SSW 6 mph 6.3 mph 96 % 0 in
21:00 41.4 °F 40.3 °F 30.3 in SSW 3.6 mph 6.5 mph 96 % 0 in
21:05 41.4 °F 40.6 °F 30.3 in South 4.3 mph 6.5 mph 97 % 0 in
21:10 41.4 °F 40.6 °F 30.3 in SSW 7.2 mph 7.2 mph 97 % 0 in
21:15 41.4 °F 40.6 °F 30.3 in South 5.4 mph 7.2 mph 97 % 0 in
21:20 41.4 °F 40.6 °F 30.3 in SSW 3.6 mph 7.2 mph 97 % 0 in
21:25 41.4 °F 40.6 °F 30.3 in WSW 3.6 mph 6 mph 97 % 0 in
21:30 41.4 °F 40.6 °F 30.3 in SSW 3.4 mph 4.9 mph 97 % 0 in
21:35 41.4 °F 40.6 °F 30.3 in SW 7.4 mph 7.4 mph 97 % 0 in
21:40 41.2 °F 40.5 °F 30.3 in SW 3.8 mph 8.1 mph 97 % 0 in
21:45 41 °F 40.3 °F 30.3 in SSW 7.2 mph 8.1 mph 97 % 0 in
21:50 41 °F 40.3 °F 30.3 in SSE 4 mph 7.2 mph 97 % 0 in
21:51 41 °F 40.3 °F 30.3 in South 3.1 mph 7.2 mph 97 % 0 in
21:56 41 °F 40.5 °F 30.3 in SSW 2.5 mph 6 mph 98 % 0 in
22:01 40.8 °F 40.3 °F 30.3 in SSW 2.9 mph 5.8 mph 98 % 0 in
22:06 40.8 °F 40.3 °F 30.3 in South 3.1 mph 5.6 mph 98 % 0 in
22:11 40.8 °F 40.3 °F 30.3 in SSW 3.8 mph 4.9 mph 98 % 0 in
22:16 40.8 °F 40.3 °F 30.3 in SSW 4 mph 4.5 mph 98 % 0 in
22:21 40.8 °F 40.3 °F 30.3 in SSW 3.1 mph 6 mph 98 % 0 in
22:26 40.6 °F 40.1 °F 30.3 in SSW 2 mph 6 mph 98 % 0 in
22:31 40.6 °F 40.1 °F 30.3 in SSW 2.5 mph 4.3 mph 98 % 0 in
22:36 40.6 °F 40.1 °F 30.3 in SW 3.6 mph 3.8 mph 98 % 0 in
22:41 40.8 °F 40.3 °F 30.3 in SSW 4.9 mph 5.4 mph 98 % 0 in
22:46 40.6 °F 40.1 °F 30.3 in South 4.3 mph 8.5 mph 98 % 0 in
22:51 40.6 °F 40.1 °F 30.3 in SSW 3.8 mph 8.5 mph 98 % 0 in
22:56 40.6 °F 40.1 °F 30.3 in SSW 5.8 mph 6 mph 98 % 0 in
23:01 40.6 °F 40.1 °F 30.3 in SW 4.9 mph 7.8 mph 98 % 0 in
23:11 40.3 °F 39.7 °F 30.3 in SSW 2.5 mph 7.8 mph 98 % 0 in
23:16 40.3 °F 39.7 °F 30.3 in SW 4.3 mph 6 mph 98 % 0 in
23:21 40.3 °F 39.7 °F 30.3 in SSW 6.3 mph 6.5 mph 98 % 0 in
23:26 40.1 °F 39.6 °F 30.3 in SSW 4.7 mph 6.5 mph 98 % 0 in
23:31 40.1 °F 39.6 °F 30.3 in SW 6.5 mph 6.7 mph 98 % 0 in
23:36 40.1 °F 39.6 °F 30.3 in SSW 4.3 mph 6.7 mph 98 % 0 in
23:41 39.9 °F 39.4 °F 30.3 in SW 4.7 mph 7.4 mph 98 % 0 in
23:46 39.9 °F 39.4 °F 30.3 in WSW 4.3 mph 7.4 mph 98 % 0 in
23:51 39.9 °F 39.4 °F 30.3 in SW 4.9 mph 5.6 mph 98 % 0 in
23:56 39.9 °F 39.4 °F 30.3 in SW 3.6 mph 5.6 mph 98 % 0 in
Le Gheer Warneton
Courtoisie de Weather Underground - 2.25 mb

Mise a jour : 16-12-17 15:58:12
Généré par Cumulus 1.9.4 (1099)